createdAt,value
2022-08-07T00:00:28.324Z,25.42
2022-08-07T00:02:58.116Z,25.21
2022-08-07T00:05:26.418Z,25.16
2022-08-07T00:07:59.788Z,25.04
2022-08-07T00:10:31.052Z,25.09
2022-08-07T00:13:23.638Z,24.96
2022-08-07T00:15:52.783Z,24.88
2022-08-07T00:18:24.691Z,24.93
2022-08-07T00:21:03.242Z,24.97
2022-08-07T00:23:32.976Z,25.02
2022-08-07T00:26:13.113Z,24.90
2022-08-07T00:28:55.632Z,24.91
2022-08-07T00:31:38.469Z,24.81
2022-08-07T00:34:09.579Z,24.80
2022-08-07T00:36:42.799Z,24.76
2022-08-07T00:39:17.064Z,24.71
2022-08-07T00:42:01.665Z,24.65
2022-08-07T00:44:30.107Z,24.69
2022-08-07T00:46:59.665Z,24.64
2022-08-07T00:50:19.445Z,24.62
2022-08-07T00:52:14.710Z,24.76
2022-08-07T00:54:45.226Z,24.66
2022-08-07T00:57:13.556Z,24.58
2022-08-07T00:59:42.353Z,24.62
2022-08-07T01:02:20.326Z,24.49
2022-08-07T01:04:58.199Z,24.46
2022-08-07T01:07:28.460Z,24.42
2022-08-07T01:10:06.946Z,24.35
2022-08-07T01:12:44.779Z,24.49
2022-08-07T01:16:00.672Z,24.16
2022-08-07T01:18:17.088Z,24.40
2022-08-07T01:20:59.209Z,24.33
2022-08-07T01:23:36.886Z,24.58
2022-08-07T01:26:14.268Z,24.55
2022-08-07T01:28:48.389Z,24.34
2022-08-07T01:31:42.615Z,24.51
2022-08-07T01:34:15.317Z,24.65
2022-08-07T01:36:44.407Z,24.52
2022-08-07T01:39:24.634Z,24.42
2022-08-07T01:42:40.089Z,24.55
2022-08-07T01:44:58.487Z,24.23
2022-08-07T01:48:21.111Z,24.31
2022-08-07T01:50:16.351Z,24.31
2022-08-07T01:52:58.648Z,24.12
2022-08-07T01:55:28.974Z,24.11
2022-08-07T01:58:05.616Z,24.12
2022-08-07T02:00:51.684Z,24.28
2022-08-07T02:03:42.877Z,24.16
2022-08-07T02:06:31.458Z,24.13
2022-08-07T02:09:08.046Z,24.13
2022-08-07T02:12:04.194Z,24.14
2022-08-07T02:14:40.841Z,24.10
2022-08-07T02:17:27.583Z,24.06
2022-08-07T02:20:04.403Z,24.12
2022-08-07T02:22:41.475Z,24.14
2022-08-07T02:25:17.362Z,23.88
2022-08-07T02:27:55.756Z,23.78
2022-08-07T02:30:24.766Z,23.69
2022-08-07T02:33:07.249Z,23.64
2022-08-07T02:36:30.964Z,23.64
2022-08-07T02:38:35.996Z,23.84
2022-08-07T02:41:06.040Z,23.85
2022-08-07T02:43:39.440Z,24.09
2022-08-07T02:46:09.370Z,23.96
2022-08-07T02:48:38.885Z,23.89
2022-08-07T02:51:42.748Z,23.67
2022-08-07T02:54:13.129Z,23.69
2022-08-07T02:56:42.314Z,23.79
2022-08-07T02:59:15.418Z,23.71
2022-08-07T03:01:47.244Z,23.71
2022-08-07T03:04:23.364Z,23.78
2022-08-07T03:06:53.364Z,23.71
2022-08-07T03:09:42.264Z,23.62
2022-08-07T03:12:21.638Z,23.50
2022-08-07T03:14:56.515Z,23.47
2022-08-07T03:17:24.514Z,23.50
2022-08-07T03:19:55.687Z,23.66
2022-08-07T03:22:30.391Z,23.52
2022-08-07T03:25:00.415Z,23.48
2022-08-07T03:28:08.761Z,23.52
2022-08-07T03:30:24.429Z,23.48
2022-08-07T03:32:58.519Z,23.63
2022-08-07T03:35:43.971Z,23.70
2022-08-07T03:38:21.048Z,23.75
2022-08-07T03:40:53.842Z,23.76
2022-08-07T03:43:32.422Z,23.78
2022-08-07T03:46:03.625Z,23.74
2022-08-07T03:48:45.472Z,23.72
2022-08-07T03:51:47.244Z,23.70
2022-08-07T03:54:36.211Z,23.90
2022-08-07T03:57:08.991Z,23.82
2022-08-07T03:59:46.767Z,23.76
2022-08-07T04:02:28.292Z,23.85
2022-08-07T04:04:59.441Z,23.83
2022-08-07T04:07:36.210Z,23.87
2022-08-07T04:10:15.681Z,23.99
2022-08-07T04:12:49.918Z,24.04
2022-08-07T04:15:19.332Z,24.08
2022-08-07T04:18:57.301Z,23.89
2022-08-07T04:20:38.921Z,23.85
2022-08-07T04:23:25.210Z,23.94
2022-08-07T04:26:14.262Z,24.11
2022-08-07T04:28:47.443Z,23.85
2022-08-07T04:31:20.196Z,23.68
2022-08-07T04:34:03.593Z,23.63
2022-08-07T04:36:31.316Z,23.69
2022-08-07T04:39:02.753Z,23.93
2022-08-07T04:41:30.246Z,24.02
2022-08-07T04:44:14.825Z,24.19
2022-08-07T04:47:08.990Z,24.35
2022-08-07T04:49:57.931Z,24.59
2022-08-07T04:52:51.298Z,25.23
2022-08-07T04:58:14.418Z,26.86
2022-08-07T05:01:45.186Z,29.74
2022-08-07T05:04:31.170Z,29.47
2022-08-07T05:07:19.722Z,29.02
2022-08-07T05:10:11.019Z,28.92
2022-08-07T05:14:44.772Z,27.52
2022-08-07T05:15:54.881Z,28.36
2022-08-07T05:18:37.299Z,29.46
2022-08-07T05:21:10.111Z,29.08
2022-08-07T05:23:50.681Z,29.67
2022-08-07T05:26:24.090Z,30.34
2022-08-07T05:29:04.628Z,31.10
2022-08-07T05:31:39.762Z,31.78
2022-08-07T05:34:16.042Z,31.75
2022-08-07T05:36:54.963Z,31.88
2022-08-07T05:40:13.616Z,32.19
2022-08-07T05:42:34.824Z,31.65
2022-08-07T05:45:26.221Z,31.33
2022-08-07T05:48:03.282Z,32.13
2022-08-07T05:50:42.970Z,32.87
2022-08-07T05:54:12.900Z,34.07
2022-08-07T05:56:05.475Z,34.40
2022-08-07T05:58:39.401Z,33.97
2022-08-07T06:01:12.383Z,33.74
2022-08-07T06:03:57.043Z,32.87
2022-08-07T06:06:34.994Z,32.32
2022-08-07T06:09:06.493Z,31.34
2022-08-07T06:11:39.463Z,31.49
2022-08-07T06:14:11.546Z,32.61
2022-08-07T06:16:50.629Z,33.71
2022-08-07T06:19:52.353Z,34.07
2022-08-07T06:22:23.521Z,34.75
2022-08-07T06:25:25.642Z,34.78
2022-08-07T06:28:15.601Z,35.51
2022-08-07T06:30:59.319Z,34.74
2022-08-07T06:33:29.762Z,33.81
2022-08-07T06:36:13.381Z,33.63
2022-08-07T06:40:13.487Z,32.89
2022-08-07T06:42:02.824Z,33.38
2022-08-07T06:45:18.066Z,32.77
2022-08-07T06:47:58.585Z,32.58
2022-08-07T06:50:50.109Z,31.56
2022-08-07T06:55:27.499Z,31.96
2022-08-07T06:56:17.841Z,32.66
2022-08-07T07:00:13.649Z,33.69
2022-08-07T07:01:50.653Z,33.21
2022-08-07T07:04:28.383Z,32.24
2022-08-07T07:07:18.853Z,32.23
2022-08-07T07:09:48.888Z,32.02
2022-08-07T07:12:31.473Z,32.02
2022-08-07T07:15:03.879Z,32.52
2022-08-07T07:17:52.364Z,32.75
2022-08-07T07:20:35.742Z,32.34
2022-08-07T07:24:11.295Z,32.76
2022-08-07T07:26:32.926Z,32.64
2022-08-07T07:29:38.954Z,32.75
2022-08-07T07:32:09.038Z,33.93
2022-08-07T07:34:41.613Z,33.05
2022-08-07T07:37:22.094Z,32.57
2022-08-07T07:40:10.423Z,32.39
2022-08-07T07:42:53.794Z,32.25
2022-08-07T07:46:39.798Z,32.50
2022-08-07T07:48:24.344Z,33.81
2022-08-07T07:51:08.091Z,34.46
2022-08-07T07:53:52.139Z,35.41
2022-08-07T07:56:30.382Z,35.84
2022-08-07T07:59:03.179Z,34.74
2022-08-07T08:02:03.563Z,34.56
2022-08-07T08:04:36.585Z,34.43
2022-08-07T08:07:09.447Z,33.96
2022-08-07T08:09:52.555Z,34.07
2022-08-07T08:12:52.601Z,33.74
2022-08-07T08:15:23.296Z,33.98
2022-08-07T08:17:58.260Z,33.68
2022-08-07T08:20:32.137Z,34.15
2022-08-07T08:23:23.297Z,35.28
2022-08-07T08:26:28.585Z,35.84
2022-08-07T08:29:00.273Z,36.38
2022-08-07T08:32:10.163Z,36.24
2022-08-07T08:34:33.494Z,35.75
2022-08-07T08:37:09.975Z,36.54
2022-08-07T08:39:58.399Z,36.50
2022-08-07T08:42:32.454Z,36.24
2022-08-07T08:45:04.621Z,36.97
2022-08-07T08:47:52.539Z,37.09
2022-08-07T08:50:39.557Z,38.44
2022-08-07T08:53:32.832Z,37.30
2022-08-07T08:56:04.850Z,37.00
2022-08-07T08:58:50.667Z,35.82
2022-08-07T09:01:43.650Z,36.61
2022-08-07T09:04:28.786Z,35.84
2022-08-07T09:07:23.156Z,36.01
2022-08-07T09:09:58.548Z,36.13
2022-08-07T09:12:37.264Z,35.90
2022-08-07T09:16:22.308Z,36.08
2022-08-07T09:18:52.995Z,36.83
2022-08-07T09:22:10.188Z,37.92
2022-08-07T09:25:14.536Z,37.77
2022-08-07T09:28:03.816Z,37.66
2022-08-07T09:31:01.484Z,37.27
2022-08-07T09:33:56.955Z,36.98
2022-08-07T09:36:36.972Z,36.25
2022-08-07T09:39:27.298Z,36.44
2022-08-07T09:42:09.280Z,36.56
2022-08-07T09:47:25.074Z,37.59
2022-08-07T09:48:06.164Z,36.89
2022-08-07T09:52:10.469Z,36.13
2022-08-07T09:54:16.401Z,36.40
2022-08-07T09:57:15.761Z,36.96
2022-08-07T10:00:00.547Z,36.97
2022-08-07T10:04:05.879Z,37.69
2022-08-07T10:06:55.475Z,38.17
2022-08-07T10:10:02.859Z,37.54
2022-08-07T10:12:33.554Z,37.33
2022-08-07T10:15:44.465Z,37.20
2022-08-07T10:18:35.321Z,37.02
2022-08-07T10:21:19.780Z,36.87
2022-08-07T10:24:39.932Z,36.40
2022-08-07T10:27:52.321Z,35.77
2022-08-07T10:30:44.058Z,35.92
2022-08-07T10:34:14.205Z,36.70
2022-08-07T10:37:14.284Z,37.79
2022-08-07T10:40:05.547Z,38.14
2022-08-07T10:42:46.659Z,38.11
2022-08-07T10:45:44.479Z,37.91
2022-08-07T10:48:41.334Z,38.85
2022-08-07T10:51:57.332Z,39.52
2022-08-07T10:54:24.346Z,39.70
2022-08-07T10:57:34.755Z,38.55
2022-08-07T11:00:36.546Z,37.76
2022-08-07T11:03:42.813Z,37.41
2022-08-07T11:06:42.474Z,37.44
2022-08-07T11:10:10.234Z,38.60
2022-08-07T11:12:38.653Z,39.72
2022-08-07T11:15:31.613Z,40.13
2022-08-07T11:18:03.667Z,39.07
2022-08-07T11:20:48.907Z,38.24
2022-08-07T11:23:30.780Z,38.08
2022-08-07T11:26:27.220Z,37.87
2022-08-07T11:29:42.839Z,37.59
2022-08-07T11:32:40.625Z,37.78
2022-08-07T11:35:26.883Z,37.95
2022-08-07T11:38:21.206Z,38.74
2022-08-07T11:41:29.688Z,38.38
2022-08-07T11:44:24.041Z,37.71
2022-08-07T11:47:10.273Z,37.39
2022-08-07T11:50:11.376Z,37.04
2022-08-07T11:53:05.107Z,37.06
2022-08-07T11:56:24.746Z,36.43
2022-08-07T12:00:07.635Z,36.64
2022-08-07T12:02:31.921Z,37.25
2022-08-07T12:05:28.672Z,37.64
2022-08-07T12:08:26.025Z,37.67
2022-08-07T12:11:22.471Z,37.74
2022-08-07T12:14:08.684Z,37.54
2022-08-07T12:16:47.240Z,37.73
2022-08-07T12:20:04.690Z,38.05
2022-08-07T12:23:11.176Z,38.13
2022-08-07T12:26:02.822Z,38.34
2022-08-07T12:29:02.013Z,38.13
2022-08-07T12:32:05.106Z,38.67
2022-08-07T12:34:39.386Z,39.15
2022-08-07T12:37:16.414Z,39.90
2022-08-07T12:39:50.789Z,40.40
2022-08-07T12:42:27.763Z,40.77
2022-08-07T12:44:59.121Z,40.06
2022-08-07T12:47:44.013Z,39.35
2022-08-07T12:50:40.368Z,39.34
2022-08-07T12:53:23.156Z,38.90
2022-08-07T12:56:26.704Z,38.24
2022-08-07T12:58:58.088Z,38.62
2022-08-07T13:01:49.181Z,38.66
2022-08-07T13:04:49.388Z,38.26
2022-08-07T13:08:12.773Z,38.14
2022-08-07T13:11:10.060Z,38.71
2022-08-07T13:14:02.285Z,39.44
2022-08-07T13:16:39.244Z,40.02
2022-08-07T13:19:53.212Z,39.78
2022-08-07T13:22:36.382Z,39.80
2022-08-07T13:25:15.195Z,39.60
2022-08-07T13:28:11.030Z,39.83
2022-08-07T13:31:13.538Z,40.34
2022-08-07T13:34:32.595Z,39.90
2022-08-07T13:36:45.685Z,39.95
2022-08-07T13:40:34.092Z,40.24
2022-08-07T13:42:24.784Z,39.22
2022-08-07T13:45:20.634Z,39.28
2022-08-07T13:48:05.859Z,39.09
2022-08-07T13:50:55.570Z,39.01
2022-08-07T13:53:36.082Z,39.92
2022-08-07T13:56:19.448Z,40.30
2022-08-07T13:59:12.107Z,39.75
2022-08-07T14:02:03.635Z,38.95
2022-08-07T14:04:48.965Z,38.28
2022-08-07T14:07:26.139Z,38.42
2022-08-07T14:10:02.165Z,38.44
2022-08-07T14:12:53.985Z,38.60
2022-08-07T14:15:50.801Z,38.70
2022-08-07T14:18:28.337Z,38.90
2022-08-07T14:21:21.237Z,38.58
2022-08-07T14:24:07.648Z,37.73
2022-08-07T14:26:50.262Z,37.81
2022-08-07T14:30:06.700Z,37.02
2022-08-07T14:32:13.485Z,36.43
2022-08-07T14:34:46.480Z,36.44
2022-08-07T14:37:17.675Z,36.29
2022-08-07T14:40:18.148Z,36.29
2022-08-07T14:43:54.784Z,35.96
2022-08-07T14:45:49.267Z,35.82
2022-08-07T14:48:20.485Z,35.64
2022-08-07T14:50:53.509Z,35.52
2022-08-07T14:54:05.472Z,35.30
2022-08-07T14:59:13.898Z,35.07
2022-08-07T15:01:58.409Z,34.97
2022-08-07T15:04:29.074Z,34.93
2022-08-07T15:06:58.423Z,34.89
2022-08-07T15:12:30.290Z,35.12
2022-08-07T15:15:07.633Z,35.26
2022-08-07T15:17:54.893Z,34.73
2022-08-07T15:20:54.657Z,34.70
2022-08-07T15:25:14.273Z,34.68
2022-08-07T15:26:20.955Z,34.69
2022-08-07T15:29:00.950Z,34.73
2022-08-07T15:35:04.215Z,34.72
2022-08-07T15:40:34.698Z,34.64
2022-08-07T15:43:53.276Z,34.72
2022-08-07T15:49:15.191Z,34.76
2022-08-07T15:54:39.578Z,34.94
2022-08-07T15:57:27.975Z,34.72
2022-08-07T16:00:31.195Z,34.74
2022-08-07T16:03:04.842Z,34.96
2022-08-07T16:05:36.164Z,35.30
2022-08-07T16:08:33.089Z,35.29
2022-08-07T16:11:26.534Z,35.66
2022-08-07T16:14:09.526Z,35.49
2022-08-07T16:18:01.448Z,35.45
2022-08-07T16:20:42.744Z,35.38
2022-08-07T16:23:13.679Z,35.05
2022-08-07T16:26:14.533Z,34.98
2022-08-07T16:30:08.882Z,34.93
2022-08-07T16:32:01.538Z,35.06
2022-08-07T16:34:49.099Z,35.38
2022-08-07T16:38:03.935Z,35.11
2022-08-07T16:40:57.249Z,34.96
2022-08-07T16:44:03.908Z,34.82
2022-08-07T16:47:07.897Z,34.48
2022-08-07T16:50:29.311Z,34.57
2022-08-07T16:53:20.756Z,34.68
2022-08-07T16:56:14.908Z,34.50
2022-08-07T16:59:14.857Z,34.46
2022-08-07T17:02:52.222Z,34.28
2022-08-07T17:06:01.746Z,34.16
2022-08-07T17:09:04.364Z,34.26
2022-08-07T17:12:04.499Z,34.13
2022-08-07T17:14:42.680Z,34.13
2022-08-07T17:17:46.650Z,34.02
2022-08-07T17:20:38.008Z,33.90
2022-08-07T17:23:32.350Z,33.84
2022-08-07T17:26:23.557Z,33.81
2022-08-07T17:30:12.849Z,33.71
2022-08-07T17:32:14.090Z,33.67
2022-08-07T17:35:50.226Z,33.60
2022-08-07T17:38:32.258Z,33.56
2022-08-07T17:42:02.331Z,33.52
2022-08-07T17:44:33.590Z,33.50
2022-08-07T17:47:42.392Z,33.43
2022-08-07T17:50:42.433Z,33.30
2022-08-07T17:54:01.584Z,33.28
2022-08-07T17:56:28.537Z,33.06
2022-08-07T17:58:56.906Z,33.13
2022-08-07T18:01:50.823Z,33.07
2022-08-07T18:04:30.768Z,32.87
2022-08-07T18:07:20.942Z,32.92
2022-08-07T18:10:10.036Z,32.86
2022-08-07T18:13:16.844Z,32.81
2022-08-07T18:16:32.735Z,32.76
2022-08-07T18:21:11.607Z,32.89
2022-08-07T18:22:15.131Z,32.66
2022-08-07T18:24:51.278Z,32.56
2022-08-07T18:27:49.619Z,32.54
2022-08-07T18:30:31.066Z,32.51
2022-08-07T18:33:26.169Z,32.50
2022-08-07T18:36:01.047Z,32.47
2022-08-07T18:38:58.086Z,32.37
2022-08-07T18:42:04.189Z,32.43
2022-08-07T18:45:42.894Z,32.45
2022-08-07T18:47:45.133Z,32.47
2022-08-07T18:50:39.559Z,32.44
2022-08-07T18:53:39.162Z,32.36
2022-08-07T18:56:34.033Z,32.50
2022-08-07T18:59:46.711Z,32.44
2022-08-07T19:02:42.511Z,32.41
2022-08-07T19:05:23.451Z,32.34
2022-08-07T19:08:07.716Z,32.34
2022-08-07T19:10:52.869Z,32.34
2022-08-07T19:13:29.243Z,32.39
2022-08-07T19:17:00.376Z,32.36
2022-08-07T19:19:34.714Z,32.28
2022-08-07T19:22:18.663Z,32.28
2022-08-07T19:25:06.442Z,32.22
2022-08-07T19:28:29.693Z,32.18
2022-08-07T19:30:57.029Z,31.97
2022-08-07T19:33:34.594Z,32.04
2022-08-07T19:36:05.646Z,31.88
2022-08-07T19:38:53.207Z,31.93
2022-08-07T19:41:44.055Z,31.89
2022-08-07T19:44:22.045Z,31.64
2022-08-07T19:46:57.720Z,31.77
2022-08-07T19:49:58.293Z,31.65
2022-08-07T19:52:27.817Z,31.68
2022-08-07T19:55:00.048Z,31.51
2022-08-07T19:58:00.975Z,31.33
2022-08-07T20:00:38.111Z,31.41
2022-08-07T20:03:33.826Z,31.57
2022-08-07T20:06:05.250Z,31.52
2022-08-07T20:08:37.935Z,31.41
2022-08-07T20:11:10.779Z,31.24
2022-08-07T20:13:51.561Z,31.24
2022-08-07T20:16:35.454Z,31.22
2022-08-07T20:19:10.242Z,31.07
2022-08-07T20:21:46.643Z,31.05
2022-08-07T20:24:30.130Z,30.98
2022-08-07T20:27:03.306Z,30.95
2022-08-07T20:29:48.737Z,31.15
2022-08-07T20:32:25.675Z,30.96
2022-08-07T20:34:58.945Z,31.18
2022-08-07T20:37:55.378Z,31.12
2022-08-07T20:40:33.172Z,30.77
2022-08-07T20:43:09.453Z,30.55
2022-08-07T20:46:27.745Z,30.52
2022-08-07T20:48:34.567Z,30.51
2022-08-07T20:51:09.741Z,30.61
2022-08-07T20:54:03.196Z,30.46
2022-08-07T20:56:33.576Z,30.32
2022-08-07T20:59:05.414Z,30.21
2022-08-07T21:01:45.880Z,30.21
2022-08-07T21:04:28.564Z,30.22
2022-08-07T21:06:58.837Z,30.20
2022-08-07T21:09:52.418Z,30.25
2022-08-07T21:12:30.730Z,30.30
2022-08-07T21:15:03.379Z,30.26
2022-08-07T21:18:03.233Z,30.33
2022-08-07T21:20:29.731Z,30.20
2022-08-07T21:23:08.340Z,30.13
2022-08-07T21:26:24.068Z,30.28
2022-08-07T21:28:59.194Z,30.09
2022-08-07T21:32:41.755Z,30.03
2022-08-07T21:34:48.257Z,29.92
2022-08-07T21:37:24.519Z,29.82
2022-08-07T21:39:59.876Z,29.92
2022-08-07T21:43:11.121Z,29.69
2022-08-07T21:46:08.813Z,30.00
2022-08-07T21:48:56.556Z,30.05
2022-08-07T21:51:33.352Z,30.29
2022-08-07T21:54:50.340Z,30.43
2022-08-07T21:57:44.988Z,30.64
2022-08-07T22:00:26.653Z,31.05
2022-08-07T22:03:31.341Z,30.88
2022-08-07T22:06:06.405Z,30.81
2022-08-07T22:08:52.461Z,30.54
2022-08-07T22:11:22.708Z,30.38
2022-08-07T22:14:00.477Z,30.25
2022-08-07T22:16:43.661Z,30.14
2022-08-07T22:19:29.262Z,30.11
2022-08-07T22:22:21.611Z,29.72
2022-08-07T22:25:07.539Z,29.51
2022-08-07T22:28:30.201Z,29.40
2022-08-07T22:31:56.421Z,29.55
2022-08-07T22:34:53.029Z,29.33
2022-08-07T22:38:04.363Z,29.11
2022-08-07T22:40:30.285Z,28.97
2022-08-07T22:43:07.608Z,29.03
2022-08-07T22:47:01.915Z,28.96
2022-08-07T22:49:39.847Z,28.99
2022-08-07T22:52:58.867Z,28.76
2022-08-07T22:55:56.952Z,28.78
2022-08-07T22:58:52.416Z,28.84
2022-08-07T23:01:49.398Z,28.88
2022-08-07T23:04:57.915Z,28.90
2022-08-07T23:07:52.167Z,29.09
2022-08-07T23:10:37.405Z,29.04
2022-08-07T23:14:10.521Z,28.88
2022-08-07T23:17:20.080Z,28.93
2022-08-07T23:20:51.420Z,29.02
2022-08-07T23:24:06.921Z,28.84
2022-08-07T23:26:54.900Z,28.68
2022-08-07T23:30:37.277Z,28.67
2022-08-07T23:34:36.141Z,28.49
2022-08-07T23:36:39.418Z,28.41
2022-08-07T23:39:41.347Z,28.37
2022-08-07T23:42:53.950Z,28.23
2022-08-07T23:46:02.585Z,28.34
2022-08-07T23:48:36.291Z,28.10
2022-08-07T23:52:53.436Z,28.01
2022-08-07T23:54:36.254Z,27.98
2022-08-07T23:57:28.537Z,27.97
